Time;durP1;ratioP1;P1;durP2;ratioP2;P2;SDS_P1;SDS_P2;PMS_P1;PMS_P2;Temp;Humidity;BMP_temperature;BMP_pressure;BME280_temperature;BME280_humidity;BME280_pressure;Samples;Min_cycle;Max_cycle;Signal;HPM_P1;HPM_P2
2023/03/24 00:02:17;;;;;;;9.60;4.07;;;12.80;99.90;;;;;;5041544;28;20513;-71
2023/03/24 00:04:42;;;;;;;7.85;4.65;;;12.80;99.90;;;;;;5053745;28;20032;-74
2023/03/24 00:07:14;;;;;;;8.35;4.25;;;12.70;99.90;;;;;;5063228;28;20047;-74
2023/03/24 00:09:43;;;;;;;8.77;4.20;;;12.70;99.90;;;;;;5060344;28;20479;-74
2023/03/24 00:12:10;;;;;;;8.20;4.15;;;12.40;99.90;;;;;;5052666;28;20032;-74
2023/03/24 00:14:40;;;;;;;11.00;5.30;;;12.30;99.90;;;;;;5063392;28;20060;-73
2023/03/24 00:17:12;;;;;;;9.18;4.60;;;12.10;99.90;;;;;;5052842;28;20203;-74
2023/03/24 00:19:39;;;;;;;9.50;3.80;;;12.00;99.90;;;;;;5056111;28;20040;-73
2023/03/24 00:22:07;;;;;;;6.15;4.00;;;12.00;99.90;;;;;;5057499;28;20389;-74
2023/03/24 00:24:33;;;;;;;6.95;4.07;;;12.00;99.90;;;;;;5061494;28;20025;-74
2023/03/24 00:26:59;;;;;;;8.35;4.50;;;12.00;99.90;;;;;;5064531;28;20079;-69
2023/03/24 00:29:26;;;;;;;6.90;4.10;;;12.20;99.90;;;;;;5060056;28;20057;-75
2023/03/24 00:31:52;;;;;;;8.88;4.30;;;12.20;99.90;;;;;;5056228;28;20074;-74
2023/03/24 00:34:21;;;;;;;7.10;3.80;;;12.20;99.90;;;;;;5070424;28;20052;-73
2023/03/24 00:36:49;;;;;;;7.90;4.07;;;12.30;99.90;;;;;;5071308;28;20158;-73
2023/03/24 00:39:16;;;;;;;7.53;4.22;;;12.40;99.90;;;;;;5071065;28;20238;-69
2023/03/24 00:41:44;;;;;;;9.95;4.55;;;12.40;99.90;;;;;;5058199;28;20111;-73
2023/03/24 00:44:16;;;;;;;8.25;4.47;;;12.40;99.90;;;;;;5069341;28;20024;-75
2023/03/24 00:46:54;;;;;;;8.05;4.20;;;12.40;99.90;;;;;;5059405;28;20032;-74
2023/03/24 00:49:41;;;;;;;6.95;4.40;;;12.40;99.90;;;;;;5056919;28;20067;-74
2023/03/24 00:52:19;;;;;;;7.97;4.50;;;12.40;99.90;;;;;;5062366;28;20055;-75
2023/03/24 00:54:46;;;;;;;10.77;4.57;;;12.40;99.90;;;;;;5057055;28;20412;-75
2023/03/24 00:57:14;;;;;;;8.68;4.40;;;12.30;99.90;;;;;;5058062;28;20060;-74
2023/03/24 00:59:47;;;;;;;6.80;4.15;;;12.20;99.90;;;;;;5035410;28;20035;-74
2023/03/24 01:02:21;;;;;;;8.77;4.55;;;12.30;99.90;;;;;;5058433;28;20041;-70
2023/03/24 01:04:58;;;;;;;7.47;4.13;;;12.30;99.90;;;;;;5062146;28;20029;-76
2023/03/24 01:07:26;;;;;;;7.53;4.13;;;12.30;99.90;;;;;;5055433;28;20029;-75
2023/03/24 01:09:58;;;;;;;8.23;3.80;;;12.30;99.90;;;;;;5070513;28;20056;-75
2023/03/24 01:12:30;;;;;;;9.23;3.97;;;12.30;99.90;;;;;;5061863;28;20065;-75
2023/03/24 01:14:58;;;;;;;10.13;4.10;;;12.30;99.90;;;;;;5059082;28;20067;-72
2023/03/24 01:17:24;;;;;;;7.68;3.72;;;12.20;99.90;;;;;;5050308;28;20037;-75
2023/03/24 01:19:54;;;;;;;8.15;4.07;;;12.30;99.90;;;;;;5060962;28;20405;-74
2023/03/24 01:22:21;;;;;;;7.90;3.35;;;12.20;99.90;;;;;;5060409;28;20032;-74
2023/03/24 01:24:48;;;;;;;7.72;3.70;;;12.20;99.90;;;;;;5053738;28;20453;-75
2023/03/24 01:27:14;;;;;;;7.88;4.10;;;12.10;99.90;;;;;;5056707;28;20043;-74
2023/03/24 01:29:41;;;;;;;9.43;4.22;;;12.10;99.90;;;;;;5052547;28;20031;-74
2023/03/24 01:32:07;;;;;;;7.40;3.58;;;12.10;99.90;;;;;;5059794;28;20064;-74
2023/03/24 01:34:33;;;;;;;7.15;3.80;;;12.10;99.90;;;;;;5049946;28;20056;-75
2023/03/24 01:36:59;;;;;;;7.55;3.72;;;12.10;99.90;;;;;;5065390;28;20044;-75
2023/03/24 01:39:25;;;;;;;7.40;3.70;;;12.20;99.90;;;;;;5057532;28;20469;-75
2023/03/24 01:41:51;;;;;;;6.57;3.70;;;12.20;99.90;;;;;;5055671;28;20068;-72
2023/03/24 01:44:24;;;;;;;6.60;3.60;;;12.20;99.90;;;;;;5049435;28;20056;-69
2023/03/24 01:46:50;;;;;;;8.02;4.18;;;12.10;99.90;;;;;;5053250;28;20025;-74
2023/03/24 01:49:16;;;;;;;7.80;3.97;;;12.00;99.90;;;;;;5068174;28;20039;-69
2023/03/24 01:51:45;;;;;;;8.05;4.00;;;12.10;99.90;;;;;;5063688;28;20032;-71
2023/03/24 01:54:22;;;;;;;6.93;3.78;;;12.00;99.90;;;;;;5050609;28;20143;-74
2023/03/24 01:57:13;;;;;;;11.32;4.20;;;11.90;99.90;;;;;;5059981;28;20039;-75
2023/03/24 01:59:44;;;;;;;8.55;4.18;;;11.90;99.90;;;;;;5049141;28;20021;-74
2023/03/24 02:02:12;;;;;;;;;;;11.80;99.90;;;;;;5047614;28;20021;-74
2023/03/24 02:04:49;;;;;;;7.32;4.28;;;11.80;99.90;;;;;;5055069;28;19905;-69
2023/03/24 02:07:21;;;;;;;11.32;5.25;;;11.90;99.90;;;;;;5060226;28;20033;-71
2023/03/24 02:09:47;;;;;;;8.23;4.45;;;11.80;99.90;;;;;;5053054;28;20031;-74
2023/03/24 02:12:13;;;;;;;7.97;4.50;;;11.90;99.90;;;;;;5058728;28;20021;-74
2023/03/24 02:14:39;;;;;;;8.70;4.40;;;11.90;99.90;;;;;;5050163;28;20319;-75
2023/03/24 02:17:10;;;;;;;8.55;4.00;;;11.90;99.90;;;;;;5049384;28;20056;-75
2023/03/24 02:19:45;;;;;;;8.45;4.00;;;12.00;99.90;;;;;;5058637;28;20111;-72
2023/03/24 02:22:20;;;;;;;8.02;4.05;;;12.00;99.90;;;;;;5056968;28;20064;-74
2023/03/24 02:25:23;;;;;;;8.57;4.20;;;12.00;99.90;;;;;;5053492;28;20025;-75
2023/03/24 02:28:15;;;;;;;7.03;3.75;;;11.90;99.90;;;;;;5057553;28;20553;-72
2023/03/24 02:31:16;;;;;;;7.63;4.07;;;11.80;99.90;;;;;;5052061;28;20025;-74
2023/03/24 02:34:15;;;;;;;8.60;3.53;;;11.80;99.90;;;;;;5042940;28;20104;-75
2023/03/24 02:36:43;;;;;;;10.02;3.88;;;12.10;99.90;;;;;;5054333;28;20408;-74
2023/03/24 02:39:36;;;;;;;7.22;3.80;;;12.30;99.90;;;;;;5044322;28;20049;-75
2023/03/24 02:42:10;;;;;;;8.18;3.50;;;12.40;99.90;;;;;;5051247;28;20103;-74
2023/03/24 02:44:55;;;;;;;7.30;3.22;;;12.60;99.90;;;;;;5045442;28;20123;-72
2023/03/24 02:47:37;;;;;;;5.43;2.88;;;12.90;99.90;;;;;;5047986;28;20070;-68
2023/03/24 02:50:17;;;;;;;4.78;2.75;;;13.30;99.90;;;;;;5057091;28;20108;-74
2023/03/24 02:52:49;;;;;;;7.13;3.43;;;13.50;99.90;;;;;;5046597;28;20116;-75
2023/03/24 02:55:24;;;;;;;7.15;2.92;;;13.50;99.90;;;;;;5047868;28;20048;-74
2023/03/24 02:58:01;;;;;;;4.90;2.63;;;13.50;99.90;;;;;;5063429;28;20037;-74
2023/03/24 03:00:33;;;;;;;5.57;2.70;;;13.60;99.90;;;;;;5055650;28;20033;-73
2023/03/24 03:03:10;;;;;;;7.30;2.60;;;13.70;99.90;;;;;;5049433;28;20103;-73
2023/03/24 03:05:43;;;;;;;4.07;2.70;;;13.80;99.90;;;;;;5048363;28;20032;-71
2023/03/24 03:08:13;;;;;;;7.68;2.90;;;14.00;99.90;;;;;;5036191;28;20052;-74
2023/03/24 03:10:43;;;;;;;5.07;2.90;;;14.00;99.90;;;;;;5044297;28;20473;-75
2023/03/24 03:13:36;;;;;;;3.97;2.47;;;14.00;99.90;;;;;;5039746;28;20070;-74
2023/03/24 03:16:16;;;;;;;4.78;2.40;;;14.20;99.90;;;;;;5052959;28;20362;-74
2023/03/24 03:18:50;;;;;;;3.90;2.33;;;14.10;99.90;;;;;;5047549;28;20037;-70
2023/03/24 03:21:21;;;;;;;8.82;2.63;;;14.10;99.90;;;;;;5058773;28;20052;-72
2023/03/24 03:23:49;;;;;;;;;;;14.20;99.90;;;;;;5050489;28;20108;-71
2023/03/24 03:26:18;;;;;;;4.00;2.60;;;14.30;99.90;;;;;;5056271;28;19909;-74
2023/03/24 03:28:50;;;;;;;5.55;2.35;;;14.20;99.90;;;;;;5051509;28;20112;-74
2023/03/24 03:31:23;;;;;;;5.07;2.85;;;14.20;99.90;;;;;;5049400;28;20082;-74
2023/03/24 03:33:55;;;;;;;7.50;2.78;;;14.20;99.90;;;;;;5052598;28;20112;-74
2023/03/24 03:36:48;;;;;;;6.32;2.70;;;14.10;99.90;;;;;;5048574;28;20059;-73
2023/03/24 03:39:28;;;;;;;3.60;2.03;;;14.10;99.90;;;;;;5056425;28;20064;-75
2023/03/24 03:41:55;;;;;;;3.58;2.40;;;14.20;99.90;;;;;;5065058;28;20028;-72
2023/03/24 03:44:21;;;;;;;5.20;2.28;;;14.10;99.90;;;;;;5051010;28;20218;-72
2023/03/24 03:46:47;;;;;;;5.80;2.70;;;14.20;99.90;;;;;;5066608;28;20165;-75
2023/03/24 03:49:12;;;;;;;3.45;2.15;;;14.10;99.90;;;;;;5057917;28;20033;-73
2023/03/24 03:51:38;;;;;;;3.60;2.15;;;14.10;99.90;;;;;;5067069;28;20103;-74
2023/03/24 03:54:10;;;;;;;4.70;2.20;;;14.10;99.90;;;;;;5055921;28;20079;-75
2023/03/24 03:56:37;;;;;;;4.28;2.40;;;14.10;99.90;;;;;;5049196;28;20120;-74
2023/03/24 03:59:05;;;;;;;4.38;2.10;;;14.20;99.90;;;;;;5056898;28;20056;-74
2023/03/24 04:01:35;;;;;;;3.95;2.22;;;14.30;99.90;;;;;;5048822;28;20479;-74
2023/03/24 04:04:09;;;;;;;7.30;2.70;;;14.30;99.90;;;;;;5058604;28;20496;-74
2023/03/24 04:07:06;;;;;;;5.10;2.28;;;14.30;99.90;;;;;;5039906;28;20112;-76
2023/03/24 04:09:44;;;;;;;5.50;2.13;;;14.20;99.90;;;;;;5044721;28;20045;-74
2023/03/24 04:12:18;;;;;;;7.55;2.40;;;14.20;99.90;;;;;;5041803;28;20028;-72
2023/03/24 04:15:05;;;;;;;6.57;2.78;;;14.20;99.90;;;;;;5048228;28;20047;-74
2023/03/24 04:17:57;;;;;;;7.10;3.00;;;14.20;99.90;;;;;;5049610;28;20071;-75
2023/03/24 04:20:25;;;;;;;4.85;2.42;;;14.20;99.90;;;;;;5044311;28;20101;-73
2023/03/24 04:23:17;;;;;;;6.65;2.33;;;14.10;99.90;;;;;;5045973;28;20095;-73
2023/03/24 04:26:02;;;;;;;4.68;2.78;;;14.00;99.90;;;;;;5045161;28;20078;-73
2023/03/24 04:28:46;;;;;;;4.97;2.65;;;14.00;99.90;;;;;;5057349;28;20037;-69
2023/03/24 04:31:41;;;;;;;4.93;2.70;;;13.90;99.90;;;;;;5045852;28;20025;-74
2023/03/24 04:34:19;;;;;;;5.15;2.60;;;13.80;99.90;;;;;;5032067;28;20045;-71
2023/03/24 04:37:11;;;;;;;4.70;2.50;;;13.60;99.90;;;;;;5057018;28;20029;-74
2023/03/24 04:39:40;;;;;;;5.88;2.72;;;13.60;99.90;;;;;;5055771;28;20052;-73
2023/03/24 04:42:11;;;;;;;4.75;2.50;;;13.50;99.90;;;;;;5051359;28;20117;-72
2023/03/24 04:44:37;;;;;;;8.48;2.50;;;13.50;99.90;;;;;;5050360;28;20116;-73
2023/03/24 04:47:04;;;;;;;7.18;2.92;;;13.40;99.90;;;;;;5056099;28;20033;-72
2023/03/24 04:49:29;;;;;;;7.38;2.97;;;13.40;99.90;;;;;;5034293;28;20051;-69
2023/03/24 04:51:56;;;;;;;4.65;2.75;;;13.40;99.90;;;;;;5041647;28;20037;-74
2023/03/24 04:54:22;;;;;;;5.32;2.45;;;13.50;99.90;;;;;;5049057;28;20036;-74
2023/03/24 04:56:53;;;;;;;6.30;2.70;;;13.40;99.90;;;;;;5057724;28;20499;-70
2023/03/24 04:59:20;;;;;;;6.35;2.83;;;13.30;99.90;;;;;;5044183;28;20043;-74
2023/03/24 05:01:49;;;;;;;4.80;2.55;;;13.20;99.90;;;;;;5062043;28;20071;-75
2023/03/24 05:04:20;;;;;;;4.88;2.55;;;13.10;99.90;;;;;;5056174;28;20473;-76
2023/03/24 05:06:45;;;;;;;;;;;13.00;99.90;;;;;;5041192;28;20391;-79
2023/03/24 05:09:13;;;;;;;4.25;2.58;;;13.00;99.90;;;;;;5037578;28;19912;-74
2023/03/24 05:11:39;;;;;;;4.00;2.50;;;13.10;99.90;;;;;;5046354;28;20025;-74
2023/03/24 05:14:05;;;;;;;4.60;2.33;;;13.20;99.90;;;;;;5045644;28;20025;-74
2023/03/24 05:16:30;;;;;;;5.85;3.08;;;13.40;99.90;;;;;;5051109;28;20098;-71
2023/03/24 05:18:56;;;;;;;7.40;2.83;;;13.40;99.90;;;;;;5052825;28;20158;-74
2023/03/24 05:21:22;;;;;;;4.60;2.67;;;13.40;99.90;;;;;;5047615;28;20053;-72
2023/03/24 05:23:47;;;;;;;7.43;2.33;;;13.40;99.90;;;;;;5057885;28;20032;-72
2023/03/24 05:26:13;;;;;;;4.22;2.40;;;13.40;99.90;;;;;;5058288;28;20029;-74
2023/03/24 05:28:39;;;;;;;6.32;2.17;;;13.50;99.90;;;;;;5040923;28;20037;-74
2023/03/24 05:31:04;;;;;;;7.18;2.70;;;13.50;99.90;;;;;;5061337;28;20028;-71
2023/03/24 05:33:30;;;;;;;6.30;2.95;;;13.50;99.90;;;;;;5047224;28;20366;-71
2023/03/24 05:35:56;;;;;;;4.20;2.28;;;13.50;99.90;;;;;;5040397;28;20118;-75
2023/03/24 05:38:22;;;;;;;4.95;2.25;;;13.70;99.90;;;;;;5042781;28;20472;-77
2023/03/24 05:40:47;;;;;;;6.13;2.35;;;13.70;99.90;;;;;;5045200;28;20037;-73
2023/03/24 05:43:13;;;;;;;5.22;2.40;;;14.00;99.90;;;;;;5051478;28;20056;-74
2023/03/24 05:45:39;;;;;;;4.57;2.25;;;14.10;99.90;;;;;;5054891;28;20056;-74
2023/03/24 05:48:05;;;;;;;3.42;2.15;;;14.20;99.90;;;;;;5059863;28;20047;-75
2023/03/24 05:50:31;;;;;;;3.83;2.20;;;14.10;99.90;;;;;;5067706;28;20033;-72
2023/03/24 05:52:57;;;;;;;3.75;1.90;;;14.30;99.90;;;;;;5061139;28;20048;-73
2023/03/24 05:55:22;;;;;;;6.57;1.88;;;14.50;99.90;;;;;;5048363;28;20036;-74
2023/03/24 05:57:48;;;;;;;3.22;1.85;;;14.70;99.90;;;;;;5059897;28;20099;-73
2023/03/24 06:00:16;;;;;;;4.25;2.05;;;14.80;99.90;;;;;;5055633;28;20025;-72
2023/03/24 06:02:45;;;;;;;6.68;2.58;;;14.60;99.90;;;;;;5056526;28;20428;-75
2023/03/24 06:05:11;;;;;;;4.97;1.98;;;14.40;99.90;;;;;;5058535;28;20056;-73
2023/03/24 06:07:41;;;;;;;4.13;2.30;;;14.20;99.90;;;;;;5029116;28;20676;-69
2023/03/24 06:10:10;;;;;;;4.50;2.60;;;14.10;99.90;;;;;;5044862;28;20063;-73
2023/03/24 06:12:36;;;;;;;5.03;2.50;;;13.70;99.90;;;;;;5048579;28;20028;-70
2023/03/24 06:15:03;;;;;;;4.57;2.53;;;13.50;99.90;;;;;;5048957;28;20046;-72
2023/03/24 06:17:29;;;;;;;7.57;2.72;;;13.30;99.90;;;;;;5056945;28;20039;-72
2023/03/24 06:20:03;;;;;;;7.72;2.90;;;13.20;99.90;;;;;;5053386;28;20657;-73
2023/03/24 06:22:31;;;;;;;5.25;2.65;;;12.90;99.90;;;;;;5056334;28;20049;-73
2023/03/24 06:24:57;;;;;;;10.88;2.92;;;12.70;99.90;;;;;;5042192;28;20033;-73
2023/03/24 06:27:25;;;;;;;6.43;3.15;;;12.60;99.90;;;;;;5062867;28;20472;-73
2023/03/24 06:29:52;;;;;;;6.72;3.25;;;12.50;99.90;;;;;;5065365;28;20024;-73
2023/03/24 06:32:18;;;;;;;6.53;3.13;;;12.40;99.90;;;;;;5060644;28;20029;-73
2023/03/24 06:34:44;;;;;;;6.75;3.25;;;12.30;99.90;;;;;;5045439;28;20029;-73
2023/03/24 06:37:10;;;;;;;5.50;3.22;;;12.30;99.90;;;;;;5048959;28;20441;-74
2023/03/24 06:39:36;;;;;;;5.80;3.22;;;12.20;99.90;;;;;;5066629;28;20037;-70
2023/03/24 06:42:02;;;;;;;7.80;3.70;;;12.20;99.90;;;;;;5048761;28;20033;-72
2023/03/24 06:44:28;;;;;;;8.85;3.17;;;12.10;99.90;;;;;;5048207;28;20028;-72
2023/03/24 06:46:53;;;;;;;7.55;3.72;;;12.00;99.90;;;;;;5056171;28;20457;-75
2023/03/24 06:49:19;;;;;;;6.30;3.50;;;12.00;99.90;;;;;;5055937;28;20021;-74
2023/03/24 06:51:45;;;;;;;9.13;3.70;;;12.10;99.90;;;;;;5049508;28;20025;-75
2023/03/24 06:54:11;;;;;;;7.45;3.38;;;12.10;99.90;;;;;;5050081;28;20032;-73
2023/03/24 06:56:37;;;;;;;6.32;3.80;;;12.10;99.90;;;;;;5051071;28;20047;-71
2023/03/24 06:59:03;;;;;;;6.13;3.83;;;12.20;99.90;;;;;;5043858;28;20449;-73
2023/03/24 07:01:29;;;;;;;11.88;4.20;;;12.20;99.90;;;;;;5049171;28;20037;-74
2023/03/24 07:03:54;;;;;;;6.07;3.70;;;12.20;99.90;;;;;;5046679;28;20622;-70
2023/03/24 07:06:21;;;;;;;10.88;3.75;;;12.20;99.90;;;;;;5055951;28;20452;-68
2023/03/24 07:08:48;;;;;;;6.43;3.53;;;12.10;99.90;;;;;;5050464;28;20036;-69
2023/03/24 07:11:14;;;;;;;7.88;3.83;;;12.20;99.90;;;;;;5059853;28;20051;-68
2023/03/24 07:13:42;;;;;;;7.25;4.35;;;12.20;99.90;;;;;;5061204;28;20028;-68
2023/03/24 07:16:08;;;;;;;9.60;3.80;;;12.10;99.90;;;;;;5059110;28;20126;-70
2023/03/24 07:18:34;;;;;;;8.73;4.50;;;11.90;99.90;;;;;;5059628;28;20039;-70
2023/03/24 07:20:59;;;;;;;8.60;4.40;;;11.90;99.90;;;;;;5050865;28;20033;-70
2023/03/24 07:23:26;;;;;;;8.40;4.43;;;11.90;99.90;;;;;;5049147;28;20032;-73
2023/03/24 07:25:52;;;;;;;8.60;4.55;;;11.80;99.90;;;;;;5056563;28;20064;-72
2023/03/24 07:28:18;;;;;;;8.02;4.32;;;11.80;99.90;;;;;;5053546;28;20041;-69
2023/03/24 07:30:44;;;;;;;9.63;4.80;;;11.80;99.90;;;;;;5055306;28;20029;-71
2023/03/24 07:33:11;;;;;;;9.18;4.70;;;11.80;99.90;;;;;;5047260;28;20036;-68
2023/03/24 07:35:38;;;;;;;10.43;4.40;;;11.80;99.90;;;;;;5053373;28;20044;-65
2023/03/24 07:38:03;;;;;;;10.25;4.80;;;11.80;99.90;;;;;;5059020;28;20071;-71
2023/03/24 07:40:29;;;;;;;10.48;5.32;;;11.90;99.90;;;;;;5037369;28;20056;-70
2023/03/24 07:42:59;;;;;;;10.05;5.25;;;11.90;99.90;;;;;;5062963;28;20040;-71
2023/03/24 07:45:27;;;;;;;10.02;5.40;;;11.90;99.90;;;;;;5048509;28;20029;-70
2023/03/24 07:47:53;;;;;;;13.18;5.45;;;11.80;99.90;;;;;;5056399;28;20083;-69
2023/03/24 07:50:19;;;;;;;10.48;4.90;;;11.80;99.90;;;;;;5053225;28;20115;-73
2023/03/24 07:52:49;;;;;;;11.10;4.93;;;11.70;99.90;;;;;;5057354;28;20116;-74
2023/03/24 07:55:15;;;;;;;12.43;5.43;;;11.70;99.90;;;;;;5045977;28;20052;-69
2023/03/24 07:57:48;;;;;;;11.88;5.40;;;11.70;99.90;;;;;;5054180;28;20444;-65
2023/03/24 08:00:16;;;;;;;11.70;5.47;;;11.70;99.90;;;;;;5045442;28;20063;-69
2023/03/24 08:02:46;;;;;;;14.70;5.80;;;11.60;99.90;;;;;;5046043;28;20064;-65
2023/03/24 08:05:15;;;;;;;11.13;5.40;;;11.60;99.90;;;;;;5049333;28;20040;-69
2023/03/24 08:07:42;;;;;;;9.45;5.03;;;11.60;99.90;;;;;;5046205;28;20045;-64
2023/03/24 08:10:10;;;;;;;9.50;5.10;;;11.60;99.90;;;;;;5059556;28;20048;-68
2023/03/24 08:12:36;;;;;;;10.52;5.50;;;11.60;99.90;;;;;;5050560;28;20090;-66
2023/03/24 08:15:02;;;;;;;9.88;5.50;;;11.60;99.90;;;;;;5047509;28;20029;-69
2023/03/24 08:17:28;;;;;;;12.25;5.75;;;11.60;99.90;;;;;;5042714;28;20039;-74
2023/03/24 08:19:54;;;;;;;11.43;6.03;;;11.50;99.90;;;;;;5036088;28;20025;-71
2023/03/24 08:22:19;;;;;;;11.10;6.28;;;11.60;99.90;;;;;;5058385;28;20036;-71
2023/03/24 08:24:45;;;;;;;12.07;5.60;;;11.60;99.90;;;;;;5055380;28;20477;-73
2023/03/24 08:27:11;;;;;;;12.73;6.40;;;11.60;99.90;;;;;;5051900;28;20085;-67
2023/03/24 08:29:36;;;;;;;12.48;6.47;;;11.50;99.90;;;;;;5054870;28;20040;-71
2023/03/24 08:32:03;;;;;;;13.65;6.82;;;11.50;99.90;;;;;;5047072;28;20161;-72
2023/03/24 08:34:29;;;;;;;15.05;6.10;;;11.50;99.90;;;;;;5058074;28;20024;-71
2023/03/24 08:36:54;;;;;;;12.77;6.03;;;11.50;99.90;;;;;;5045161;28;20032;-72
2023/03/24 08:39:20;;;;;;;13.35;6.22;;;11.50;99.90;;;;;;5044756;28;20053;-75
2023/03/24 08:41:48;;;;;;;13.23;6.55;;;11.50;99.90;;;;;;5043851;28;20055;-69
2023/03/24 08:44:15;;;;;;;11.32;6.32;;;11.50;99.90;;;;;;5063539;28;20044;-72
2023/03/24 08:46:41;;;;;;;13.40;6.63;;;11.60;99.90;;;;;;5063594;28;20115;-68
2023/03/24 08:49:06;;;;;;;16.75;6.97;;;11.60;99.90;;;;;;5059945;28;20119;-74
2023/03/24 08:51:32;;;;;;;14.35;6.63;;;11.60;99.90;;;;;;5055991;28;20078;-71
2023/03/24 08:53:58;;;;;;;14.85;6.47;;;11.60;99.90;;;;;;5049540;28;20041;-72
2023/03/24 08:56:24;;;;;;;13.90;6.40;;;11.60;99.90;;;;;;5054796;28;20112;-74
2023/03/24 08:58:52;;;;;;;11.65;6.28;;;11.60;99.90;;;;;;5055005;28;20515;-73
2023/03/24 09:01:19;;;;;;;13.82;6.32;;;11.60;99.90;;;;;;5049844;28;20834;-72
2023/03/24 09:03:45;;;;;;;11.05;6.50;;;11.70;99.90;;;;;;5058399;28;20108;-68
2023/03/24 09:06:11;;;;;;;11.75;6.45;;;11.70;99.90;;;;;;5049230;28;20060;-73
2023/03/24 09:08:37;;;;;;;11.85;6.00;;;11.70;99.90;;;;;;5048973;28;20048;-73
2023/03/24 09:11:04;;;;;;;10.95;5.88;;;11.70;99.90;;;;;;5058135;28;20106;-75
2023/03/24 09:13:29;;;;;;;12.00;6.25;;;11.80;99.90;;;;;;5046569;28;20116;-73
2023/03/24 09:16:01;;;;;;;11.80;5.82;;;11.90;99.90;;;;;;5062793;28;20104;-75
2023/03/24 09:18:27;;;;;;;11.50;5.72;;;11.90;99.90;;;;;;5066339;28;20032;-74
2023/03/24 09:20:53;;;;;;;11.57;6.28;;;11.80;99.90;;;;;;5049747;28;20049;-74
2023/03/24 09:23:20;;;;;;;11.43;6.07;;;11.90;99.90;;;;;;5056562;28;20032;-71
2023/03/24 09:25:49;;;;;;;9.93;5.25;;;12.00;99.90;;;;;;5063571;28;20727;-69
2023/03/24 09:28:15;;;;;;;12.98;5.70;;;12.00;99.90;;;;;;5047873;28;20043;-72
2023/03/24 09:30:41;;;;;;;9.30;5.20;;;12.10;99.90;;;;;;5054711;28;20037;-72
2023/03/24 09:33:07;;;;;;;17.50;5.13;;;12.20;99.90;;;;;;5056862;28;20143;-72
2023/03/24 09:35:33;;;;;;;9.60;4.97;;;12.30;99.90;;;;;;5058087;28;20116;-72
2023/03/24 09:37:59;;;;;;;8.57;5.03;;;12.30;99.90;;;;;;5057122;28;20111;-72
2023/03/24 09:40:28;;;;;;;10.80;5.07;;;12.30;99.90;;;;;;5057647;28;20028;-71
2023/03/24 09:43:07;;;;;;;8.75;5.38;;;12.40;99.90;;;;;;5047541;28;20033;-75
2023/03/24 09:45:36;;;;;;;6.68;4.38;;;12.40;99.90;;;;;;5059363;28;20036;-71
2023/03/24 09:48:04;;;;;;;9.00;4.13;;;12.50;99.90;;;;;;5057239;28;20043;-73
2023/03/24 09:51:03;;;;;;;7.55;4.28;;;12.50;99.90;;;;;;5059143;28;20079;-73
2023/03/24 09:53:50;;;;;;;6.78;4.03;;;12.60;99.90;;;;;;5030193;28;20051;-69
2023/03/24 09:56:19;;;;;;;7.00;3.70;;;12.60;99.90;;;;;;5051313;28;20017;-73
2023/03/24 09:59:00;;;;;;;6.57;3.72;;;12.60;99.90;;;;;;5054783;28;20112;-70
2023/03/24 10:01:26;;;;;;;6.38;3.85;;;12.60;99.90;;;;;;5054919;28;20066;-71
2023/03/24 10:03:56;;;;;;;6.57;3.85;;;12.70;99.90;;;;;;5051427;28;20028;-71
2023/03/24 10:06:25;;;;;;;9.77;3.88;;;12.70;99.90;;;;;;5063921;28;20036;-71
2023/03/24 10:09:18;;;;;;;7.00;3.92;;;12.80;99.90;;;;;;5044964;28;20068;-70
2023/03/24 10:12:14;;;;;;;7.88;3.83;;;12.80;99.90;;;;;;5046581;28;20037;-69
2023/03/24 10:15:12;;;;;;;8.25;4.28;;;12.80;99.90;;;;;;5052249;28;20032;-70
2023/03/24 10:17:47;;;;;;;7.95;3.70;;;12.90;99.90;;;;;;5057664;28;20051;-70
2023/03/24 10:20:43;;;;;;;6.47;3.65;;;13.10;99.90;;;;;;5039884;28;20045;-70
2023/03/24 10:23:14;;;;;;;6.43;3.63;;;13.10;99.90;;;;;;5058635;28;20021;-74
2023/03/24 10:25:59;;;;;;;8.10;3.30;;;13.20;99.90;;;;;;5047864;28;20109;-73
2023/03/24 10:28:41;;;;;;;3.90;2.67;;;13.30;99.90;;;;;;5048226;28;20112;-71
2023/03/24 10:31:14;;;;;;;5.53;2.95;;;13.30;99.90;;;;;;5056382;28;20083;-71
2023/03/24 10:33:42;;;;;;;5.40;2.85;;;13.40;99.90;;;;;;5058027;28;20380;-69
2023/03/24 10:36:20;;;;;;;6.25;2.90;;;13.50;99.90;;;;;;5056780;28;20107;-70
2023/03/24 10:38:45;;;;;;;3.65;2.42;;;13.80;99.90;;;;;;5060990;28;20456;-73
2023/03/24 10:41:23;;;;;;;5.25;2.28;;;14.00;99.90;;;;;;5054922;28;20039;-70
2023/03/24 10:43:50;;;;;;;3.72;1.92;;;14.20;99.90;;;;;;5039094;28;20040;-67
2023/03/24 10:46:21;;;;;;;3.70;2.08;;;14.40;99.90;;;;;;5042010;28;20497;-71
2023/03/24 10:48:49;;;;;;;5.13;1.98;;;14.60;99.90;;;;;;5065033;28;20044;-71
2023/03/24 10:51:31;;;;;;;4.55;2.00;;;14.60;99.90;;;;;;5054339;28;20057;-71
2023/03/24 10:54:19;;;;;;;3.20;1.83;;;14.40;99.90;;;;;;5063809;28;20029;-70
2023/03/24 10:56:49;;;;;;;5.93;1.98;;;14.50;99.90;;;;;;5053331;28;20504;-69
2023/03/24 10:59:32;;;;;;;2.58;1.40;;;14.50;99.90;;;;;;5048656;28;20036;-69
2023/03/24 11:02:07;;;;;;;2.35;1.70;;;14.50;99.90;;;;;;5049056;28;20478;-71
2023/03/24 11:04:34;;;;;;;3.53;1.50;;;14.50;99.90;;;;;;5041476;28;20474;-70
2023/03/24 11:07:02;;;;;;;2.33;1.40;;;14.50;99.90;;;;;;5065062;28;20028;-72
2023/03/24 11:09:29;;;;;;;3.53;1.42;;;14.40;99.90;;;;;;5064103;28;20028;-71
2023/03/24 11:11:54;;;;;;;2.83;1.60;;;14.30;99.90;;;;;;5057365;28;20074;-70
2023/03/24 11:14:24;;;;;;;2.33;1.38;;;14.30;99.90;;;;;;5048120;28;20625;-71
2023/03/24 11:16:51;;;;;;;2.70;1.30;;;14.60;99.90;;;;;;5050447;28;20431;-69
2023/03/24 11:19:26;;;;;;;2.50;1.35;;;14.70;99.90;;;;;;5058522;28;20040;-75
2023/03/24 11:21:58;;;;;;;2.67;1.45;;;14.70;99.90;;;;;;5056838;28;20052;-71
2023/03/24 11:24:26;;;;;;;2.65;1.42;;;14.60;99.90;;;;;;5048087;28;20466;-76
2023/03/24 11:27:02;;;;;;;2.55;1.35;;;14.50;99.90;;;;;;5042352;28;20021;-71
2023/03/24 11:29:30;;;;;;;3.17;1.35;;;14.50;99.90;;;;;;5060161;28;20481;-78
2023/03/24 11:32:10;;;;;;;2.70;1.65;;;14.60;99.90;;;;;;5053796;28;20116;-76
2023/03/24 11:34:40;;;;;;;2.22;0.93;;;14.50;99.90;;;;;;5059516;28;20037;-78
2023/03/24 11:37:07;;;;;;;;;;;14.50;99.90;;;;;;5065125;28;20049;-75
2023/03/24 11:39:33;;;;;;;3.58;1.27;;;14.50;99.90;;;;;;5041677;28;20392;-77
2023/03/24 11:42:13;;;;;;;2.58;1.27;;;14.40;99.90;;;;;;5055348;28;20037;-80
2023/03/24 11:44:50;;;;;;;1.98;1.15;;;14.30;99.90;;;;;;5048709;28;20036;-78
2023/03/24 11:47:31;;;;;;;3.00;1.17;;;14.30;99.90;;;;;;5057069;28;20035;-79
2023/03/24 11:50:08;;;;;;;3.58;1.40;;;14.30;99.90;;;;;;5051966;28;20040;-76
2023/03/24 11:52:36;;;;;;;4.47;1.45;;;14.40;99.90;;;;;;5053327;28;20485;-80
2023/03/24 11:55:12;;;;;;;2.08;1.13;;;14.40;99.90;;;;;;5054414;28;20076;-79
2023/03/24 11:57:59;;;;;;;2.63;1.23;;;14.60;99.90;;;;;;5048205;28;20036;-78
2023/03/24 12:00:31;;;;;;;1.98;1.15;;;14.80;99.90;;;;;;5046140;28;20036;-79
2023/03/24 12:03:16;;;;;;;2.70;1.30;;;15.00;99.90;;;;;;5049356;28;20064;-78
2023/03/24 12:05:51;;;;;;;3.15;1.10;;;15.40;99.90;;;;;;5055973;28;20036;-78
2023/03/24 12:08:24;;;;;;;1.98;1.20;;;15.50;99.90;;;;;;5057750;28;20060;-76
2023/03/24 12:11:07;;;;;;;4.70;1.45;;;15.30;99.90;;;;;;5058859;28;20106;-78
2023/03/24 12:13:39;;;;;;;1.95;1.15;;;15.20;99.90;;;;;;5049676;28;20554;-77
2023/03/24 12:16:18;;;;;;;3.45;1.10;;;15.00;99.90;;;;;;5041489;28;20032;-75
2023/03/24 12:19:15;;;;;;;1.52;1.00;;;15.00;99.90;;;;;;5041820;28;20032;-79
2023/03/24 12:21:59;;;;;;;2.95;0.90;;;15.00;99.90;;;;;;5026119;28;20080;-75
2023/03/24 12:24:57;;;;;;;2.95;1.13;;;15.10;99.90;;;;;;5050741;28;20439;-79
2023/03/24 12:27:28;;;;;;;3.00;0.95;;;15.00;99.90;;;;;;5008887;28;20049;-77
2023/03/24 12:29:59;;;;;;;1.00;0.60;;;14.90;99.90;;;;;;5028097;28;20428;-71
2023/03/24 12:32:41;;;;;;;3.85;0.90;;;14.80;99.90;;;;;;5042328;28;20033;-79
2023/03/24 12:35:42;;;;;;;1.95;0.70;;;14.80;99.90;;;;;;5046789;28;20498;-76
2023/03/24 12:38:14;;;;;;;;;;;14.70;99.90;;;;;;5030384;28;20049;-75
2023/03/24 12:40:49;;;;;;;2.38;0.60;;;14.60;99.90;;;;;;5044088;28;19915;-77
2023/03/24 12:43:55;;;;;;;2.45;0.82;;;14.60;99.90;;;;;;5050485;28;20029;-74
2023/03/24 12:46:27;;;;;;;1.40;0.60;;;14.50;99.90;;;;;;5042438;28;20025;-74
2023/03/24 12:49:08;;;;;;;0.90;0.50;;;14.50;99.90;;;;;;5028141;28;20132;-77
2023/03/24 12:52:13;;;;;;;2.22;0.60;;;14.50;99.90;;;;;;5048346;28;20032;-74
2023/03/24 12:54:52;;;;;;;0.75;0.40;;;14.40;99.90;;;;;;5038455;28;20056;-78
2023/03/24 12:57:23;;;;;;;2.47;0.70;;;14.50;99.90;;;;;;5047512;28;20021;-73
2023/03/24 13:00:12;;;;;;;0.63;0.40;;;14.50;99.90;;;;;;5047615;28;20541;-78
2023/03/24 13:02:45;;;;;;;1.25;0.52;;;14.50;99.90;;;;;;5040350;28;20033;-72
2023/03/24 13:05:20;;;;;;;1.00;0.60;;;14.40;99.90;;;;;;5047554;28;20200;-71
2023/03/24 13:07:52;;;;;;;2.90;0.70;;;14.30;99.90;;;;;;5042762;28;20049;-78
2023/03/24 13:10:27;;;;;;;2.25;0.60;;;14.30;99.90;;;;;;5054085;28;20040;-71